Time;durP1;ratioP1;P1;durP2;ratioP2;P2;SDS_P1;SDS_P2;PMS_P1;PMS_P2;Temp;Humidity;BMP_temperature;BMP_pressure;BME280_temperature;BME280_humidity;BME280_pressure;Samples;Min_cycle;Max_cycle;Signal;HPM_P1;HPM_P2
2022/08/04 00:00:01;;;;;;;6.18;3.00;;;;;;;24.77;54.13;95111.44;5023891;28;20041;-70
2022/08/04 00:02:36;;;;;;;5.15;2.95;;;;;;;24.68;54.36;95095.41;5019915;28;20284;-73
2022/08/04 00:05:05;;;;;;;6.13;3.58;;;;;;;24.57;54.30;95087.38;5019531;28;20054;-66
2022/08/04 00:08:10;;;;;;;6.15;3.58;;;;;;;24.74;54.33;95118.69;4987545;28;20056;-69
2022/08/04 00:10:35;;;;;;;7.95;3.58;;;;;;;24.58;54.42;95099.78;5019588;28;20414;-75
2022/08/04 00:13:02;;;;;;;5.20;3.47;;;;;;;24.58;54.90;95114.16;5001728;28;20045;-74
2022/08/04 00:15:28;;;;;;;7.35;3.70;;;;;;;24.61;55.07;95098.75;5006290;28;20663;-75
2022/08/04 00:17:57;;;;;;;5.05;3.65;;;;;;;24.56;54.84;95097.56;5024407;28;20606;-75
2022/08/04 00:20:22;;;;;;;5.30;3.55;;;;;;;24.56;55.16;95096.84;5020823;28;20033;-63
2022/08/04 00:22:48;;;;;;;4.55;3.50;;;;;;;24.49;54.97;95081.03;4999707;28;20038;-70
2022/08/04 00:25:13;;;;;;;6.05;3.50;;;;;;;24.55;55.12;95084.44;5020932;28;20033;-63
2022/08/04 00:27:39;;;;;;;6.68;3.33;;;;;;;24.58;54.70;95102.50;5018303;28;20109;-68
2022/08/04 00:30:05;;;;;;;5.32;3.28;;;;;;;24.51;54.44;95094.91;5019910;28;20041;-63
2022/08/04 00:32:31;;;;;;;6.03;2.90;;;;;;;24.54;54.79;95100.09;5017325;28;20675;-62
2022/08/04 00:34:56;;;;;;;4.60;3.40;;;;;;;24.33;54.37;95067.56;4984024;28;20064;-67
2022/08/04 00:37:22;;;;;;;7.82;3.55;;;;;;;24.45;54.39;95096.94;5016246;28;20132;-66
2022/08/04 00:39:48;;;;;;;4.47;3.20;;;;;;;24.44;53.99;95106.41;5018027;28;20033;-62
2022/08/04 00:42:33;;;;;;;6.32;3.42;;;;;;;24.48;54.60;95112.31;5014252;28;20520;-76
2022/08/04 00:45:04;;;;;;;5.10;3.40;;;;;;;24.48;54.01;95112.31;5016412;28;20037;-62
2022/08/04 00:47:47;;;;;;;3.88;3.08;;;;;;;24.43;54.31;95110.38;5017130;28;20124;-68
2022/08/04 00:50:34;;;;;;;6.95;3.53;;;;;;;24.41;54.24;95107.44;4984467;28;20094;-63
2022/08/04 00:53:51;;;;;;;4.95;3.35;;;;;;;24.17;54.51;95065.72;5018754;28;20030;-71
2022/08/04 00:56:51;;;;;;;5.38;3.65;;;;;;;24.37;54.47;95106.97;4962605;28;20047;-62
2022/08/04 01:00:00;;;;;;;5.18;3.17;;;;;;;24.36;54.42;95110.94;5013792;28;20091;-62
2022/08/04 01:02:38;;;;;;;5.78;3.45;;;;;;;24.34;54.30;95113.47;5004619;28;20038;-69
2022/08/04 01:05:05;;;;;;;5.28;3.15;;;;;;;24.33;54.59;95116.69;5020165;28;20034;-67
2022/08/04 01:07:35;;;;;;;4.38;3.53;;;;;;;24.32;54.70;95110.50;5022743;28;20072;-69
2022/08/04 01:10:26;;;;;;;4.47;3.42;;;;;;;24.27;54.78;95114.00;5021733;28;20056;-64
2022/08/04 01:13:06;;;;;;;7.07;3.58;;;;;;;24.24;54.49;95109.56;5007764;28;20116;-62
2022/08/04 01:15:52;;;;;;;5.13;3.20;;;;;;;24.02;54.18;95082.53;5001409;28;20081;-69
2022/08/04 01:18:21;;;;;;;4.90;3.10;;;;;;;24.16;54.47;95119.56;5015040;28;20041;-62
2022/08/04 01:21:13;;;;;;;5.43;3.20;;;;;;;24.23;54.75;95135.41;5004849;28;20038;-63
2022/08/04 01:23:49;;;;;;;6.32;3.20;;;;;;;24.22;54.47;95133.91;5002401;28;20045;-62
2022/08/04 01:26:48;;;;;;;5.15;3.15;;;;;;;23.98;54.27;95098.44;5015659;28;20042;-73
2022/08/04 01:29:14;;;;;;;5.30;3.80;;;;;;;24.01;54.47;95108.31;5002828;28;20100;-71
2022/08/04 01:31:45;;;;;;;4.93;3.42;;;;;;;24.17;54.98;95123.78;5003844;28;20121;-75
2022/08/04 01:34:11;;;;;;;5.28;3.35;;;;;;;24.10;54.67;95110.72;5002579;28;20475;-75
2022/08/04 01:36:38;;;;;;;7.75;3.33;;;;;;;23.87;54.39;95082.19;5007678;28;20049;-72
2022/08/04 01:39:39;;;;;;;5.30;3.35;;;;;;;24.11;54.36;95123.09;5007738;28;20029;-74
2022/08/04 01:41:53;;;;;;;3.97;3.30;;;;;;;23.91;54.59;95082.63;5005868;28;20037;-70
2022/08/04 01:44:18;;;;;;;4.43;3.35;;;;;;;24.04;54.69;95101.84;4993913;28;20034;-68
2022/08/04 01:46:45;;;;;;;5.88;3.30;;;;;;;24.02;54.90;95093.44;5020191;28;20045;-66
2022/08/04 01:49:10;;;;;;;4.22;3.20;;;;;;;23.87;55.01;95082.19;5020745;28;20029;-65
2022/08/04 01:51:38;;;;;;;4.45;3.42;;;;;;;24.03;55.13;95116.00;5013912;28;20030;-68
2022/08/04 01:54:03;;;;;;;5.93;3.15;;;;;;;24.00;55.29;95111.56;5002650;28;20536;-63
2022/08/04 01:56:29;;;;;;;6.28;3.75;;;;;;;24.02;55.38;95115.25;5026099;28;20118;-67
2022/08/04 01:58:56;;;;;;;4.93;3.22;;;;;;;24.04;55.46;95120.94;5013663;28;20582;-66
2022/08/04 02:01:21;;;;;;;4.82;3.53;;;;;;;23.95;55.46;95110.34;5005304;28;20033;-63
2022/08/04 02:03:47;;;;;;;6.05;3.58;;;;;;;23.96;55.86;95111.84;5003771;28;20512;-62
2022/08/04 02:06:31;;;;;;;5.35;3.28;;;;;;;24.00;55.39;95117.75;5002983;28;20639;-67
2022/08/04 02:09:10;;;;;;;5.32;3.40;;;;;;;23.99;55.48;95110.81;5002530;28;20038;-67
2022/08/04 02:11:35;;;;;;;5.43;3.45;;;;;;;23.96;55.33;95109.13;5015880;28;20557;-74
2022/08/04 02:14:39;;;;;;;6.95;3.90;;;;;;;23.96;55.33;95111.84;5005009;28;20130;-72
2022/08/04 02:17:46;;;;;;;4.85;3.17;;;;;;;23.91;55.18;95104.44;5023143;28;20042;-72
2022/08/04 02:20:15;;;;;;;5.47;3.28;;;;;;;23.80;55.02;95100.34;5008626;28;20247;-63
2022/08/04 02:22:51;;;;;;;5.97;3.72;;;;;;;23.80;55.36;95090.19;5020863;28;20021;-69
2022/08/04 02:25:19;;;;;;;6.07;3.60;;;;;;;23.90;55.71;95113.88;5022448;28;20026;-65
2022/08/04 02:28:09;;;;;;;7.00;3.55;;;;;;;23.70;55.40;95082.84;5004042;28;20083;-71
2022/08/04 02:30:53;;;;;;;4.85;3.28;;;;;;;23.87;55.73;95104.00;5009393;28;20034;-74
2022/08/04 02:33:26;;;;;;;7.57;3.97;;;;;;;23.86;55.51;95101.03;5000249;28;20041;-65
2022/08/04 02:35:55;;;;;;;5.50;3.40;;;;;;;23.87;55.64;95106.72;4985980;28;20132;-71
2022/08/04 02:38:26;;;;;;;5.55;3.78;;;;;;;23.83;55.66;95107.53;4993831;28;20124;-73
2022/08/04 02:40:53;;;;;;;7.05;3.90;;;;;;;23.80;55.67;95108.53;5001747;28;20042;-69
2022/08/04 02:43:19;;;;;;;4.70;3.55;;;;;;;23.69;55.85;95094.97;5001189;28;20608;-67
2022/08/04 02:45:46;;;;;;;4.45;3.28;;;;;;;23.61;55.91;95091.31;5018573;28;20018;-69
2022/08/04 02:48:12;;;;;;;4.95;3.55;;;;;;;23.64;56.33;95095.78;5004105;28;20041;-75
2022/08/04 02:50:37;;;;;;;8.05;3.75;;;;;;;23.63;55.86;95094.25;4982324;28;20770;-74
2022/08/04 02:53:04;;;;;;;5.88;3.40;;;;;;;23.74;55.76;95103.13;4991749;28;20037;-73
2022/08/04 02:55:29;;;;;;;6.63;3.67;;;;;;;23.64;56.25;95096.50;5015588;28;20041;-70
2022/08/04 02:57:56;;;;;;;5.97;4.20;;;;;;;23.40;55.93;95071.91;4984149;28;20101;-76
2022/08/04 03:00:22;;;;;;;7.07;3.85;;;;;;;23.66;55.79;95104.19;4998844;28;20080;-78
2022/08/04 03:03:01;;;;;;;5.22;3.45;;;;;;;23.70;55.46;95126.47;4950627;28;21205;-76
2022/08/04 03:05:53;;;;;;;7.25;3.75;;;;;;;23.71;55.91;95117.03;4997859;28;20204;-72
2022/08/04 03:08:37;;;;;;;5.32;3.85;;;;;;;23.70;55.53;95126.47;4996271;28;20121;-75
2022/08/04 03:11:04;;;;;;;6.32;3.30;;;;;;;23.71;55.40;95117.03;4998697;28;20208;-74
2022/08/04 03:13:45;;;;;;;4.85;3.40;;;;;;;23.68;55.71;95123.50;4999180;28;20128;-74
2022/08/04 03:16:19;;;;;;;4.85;3.25;;;;;;;23.66;55.59;95128.72;4998824;28;20576;-75
2022/08/04 03:19:22;;;;;;;5.55;3.45;;;;;;;23.65;55.74;95124.53;5015953;28;20038;-67
2022/08/04 03:22:10;;;;;;;5.40;3.80;;;;;;;23.64;55.51;95123.03;5002737;28;20325;-75
2022/08/04 03:24:38;;;;;;;4.53;3.20;;;;;;;23.64;55.67;95117.59;5020003;28;20128;-76
2022/08/04 03:27:36;;;;;;;6.75;3.42;;;;;;;23.58;55.73;95111.41;5002815;28;20049;-72
2022/08/04 03:30:06;;;;;;;5.60;3.50;;;;;;;23.59;55.28;95112.91;5003684;28;20058;-74
2022/08/04 03:33:17;;;;;;;4.85;3.50;;;;;;;23.63;55.23;95124.25;4997775;28;20042;-66
2022/08/04 03:36:14;;;;;;;5.35;3.17;;;;;;;23.63;55.30;95126.97;4981666;28;20034;-73
2022/08/04 03:38:58;;;;;;;4.65;3.38;;;;;;;23.62;54.80;95120.06;4982486;28;20061;-72
2022/08/04 03:41:39;;;;;;;6.15;3.58;;;;;;;23.59;54.70;95118.34;5003163;28;20123;-74
2022/08/04 03:44:33;;;;;;;3.63;3.10;;;;;;;23.62;54.96;95120.06;5009907;28;20046;-62
2022/08/04 03:47:24;;;;;;;4.47;3.47;;;;;;;23.59;55.11;95126.53;4998109;28;20127;-63
2022/08/04 03:50:15;;;;;;;5.68;3.40;;;;;;;23.58;55.12;95116.88;5006445;28;20037;-79
2022/08/04 03:53:07;;;;;;;4.18;3.20;;;;;;;23.60;54.85;95117.09;5020428;28;20080;-72
2022/08/04 03:55:33;;;;;;;5.97;3.58;;;;;;;23.62;55.03;95125.50;5012488;28;20037;-64
2022/08/04 03:58:23;;;;;;;3.92;3.15;;;;;;;23.60;54.92;95122.53;5000763;28;20034;-70
2022/08/04 04:00:48;;;;;;;;;;;;;;;23.61;55.22;95124.03;4997505;28;20099;-71
2022/08/04 04:03:23;;;;;;;5.47;3.33;;;;;;;23.58;55.31;95119.59;4992835;28;20401;-67
2022/08/04 04:06:19;;;;;;;5.13;3.17;;;;;;;23.58;55.36;95119.59;4991416;28;20066;-62
2022/08/04 04:09:06;;;;;;;5.38;3.67;;;;;;;23.57;55.22;95123.56;5005257;28;20551;-73
2022/08/04 04:11:55;;;;;;;5.20;3.55;;;;;;;23.62;54.97;95128.25;4996045;28;20121;-71
2022/08/04 04:14:38;;;;;;;4.55;3.40;;;;;;;23.59;55.12;95126.53;4999028;28;20104;-72
2022/08/04 04:17:21;;;;;;;6.40;3.42;;;;;;;23.64;55.27;95140.13;5009465;28;20030;-64
2022/08/04 04:19:58;;;;;;;7.07;3.70;;;;;;;23.55;55.43;95126.06;4996322;28;20046;-63
2022/08/04 04:22:55;;;;;;;6.32;3.45;;;;;;;23.66;55.66;95142.34;4990404;28;20519;-69
2022/08/04 04:25:56;;;;;;;3.97;3.28;;;;;;;23.50;55.02;95107.78;4986505;28;20053;-63
2022/08/04 04:28:42;;;;;;;6.55;3.88;;;;;;;23.70;55.66;95137.38;5008108;28;20145;-64
2022/08/04 04:31:26;;;;;;;5.63;4.43;;;;;;;23.73;55.45;95141.81;5012400;28;20033;-66
2022/08/04 04:34:28;;;;;;;5.25;3.50;;;;;;;23.81;55.36;95131.81;4991080;28;20026;-66
2022/08/04 04:37:16;;;;;;;5.70;3.75;;;;;;;23.89;55.35;95138.94;4994211;28;20058;-68
2022/08/04 04:40:10;;;;;;;6.25;4.32;;;;;;;24.01;54.99;95141.06;5006537;28;20080;-66
2022/08/04 04:43:00;;;;;;;5.53;4.20;;;;;;;24.08;54.78;95140.50;4989145;28;20583;-63
2022/08/04 04:45:53;;;;;;;6.13;4.00;;;;;;;24.25;54.59;95135.59;5001582;28;20046;-68
2022/08/04 04:48:32;;;;;;;5.63;3.70;;;;;;;24.35;53.95;95140.25;4992170;28;20536;-69
2022/08/04 04:51:09;;;;;;;6.63;3.88;;;;;;;24.39;53.91;95134.50;4995615;28;20037;-63
2022/08/04 04:54:00;;;;;;;6.82;4.28;;;;;;;24.64;53.26;95141.41;5015047;28;20132;-72
2022/08/04 04:56:46;;;;;;;5.60;4.10;;;;;;;24.81;53.21;95144.69;5010239;28;20033;-69
2022/08/04 04:59:17;;;;;;;6.35;4.00;;;;;;;24.77;52.58;95114.19;5012794;28;20034;-62
2022/08/04 05:02:24;;;;;;;7.22;4.03;;;;;;;25.01;52.23;95137.50;5001822;28;20053;-64
2022/08/04 05:05:24;;;;;;;5.65;3.78;;;;;;;25.18;51.94;95143.47;5005329;28;20121;-68
2022/08/04 05:08:43;;;;;;;9.45;4.72;;;;;;;25.29;51.93;95137.88;5017105;28;20051;-68
2022/08/04 05:11:28;;;;;;;7.28;4.18;;;;;;;25.47;51.49;95145.28;4958753;28;20038;-64
2022/08/04 05:13:57;;;;;;;8.05;4.30;;;;;;;25.51;51.21;95140.97;5016718;28;20045;-67
2022/08/04 05:16:35;;;;;;;5.63;3.90;;;;;;;25.34;51.09;95093.28;5015324;28;20065;-68
2022/08/04 05:19:00;;;;;;;5.47;4.30;;;;;;;25.78;50.71;95147.31;5006585;28;20037;-68
2022/08/04 05:21:47;;;;;;;9.52;4.45;;;;;;;25.69;50.17;95123.09;5018761;28;20060;-68
2022/08/04 05:24:14;;;;;;;10.93;4.60;;;;;;;25.91;50.30;95146.09;4999487;28;20184;-67
2022/08/04 05:26:53;;;;;;;9.60;5.00;;;;;;;26.04;49.82;95148.16;5002410;28;20038;-71
2022/08/04 05:29:30;;;;;;;8.05;4.68;;;;;;;26.12;49.35;95138.78;4990669;28;20045;-64
2022/08/04 05:31:56;;;;;;;7.45;4.75;;;;;;;26.27;49.42;95155.44;5008223;28;20100;-75
2022/08/04 05:34:34;;;;;;;8.95;4.50;;;;;;;26.39;48.40;95151.25;5003449;28;20508;-71
2022/08/04 05:37:02;;;;;;;7.55;4.38;;;;;;;26.39;48.63;95140.31;4988982;28;20041;-71
2022/08/04 05:39:28;;;;;;;6.80;4.82;;;;;;;26.40;48.45;95139.78;5006193;28;20049;-66
2022/08/04 05:41:54;;;;;;;8.13;5.15;;;;;;;26.52;48.30;95154.03;4982136;28;20045;-68
2022/08/04 05:44:20;;;;;;;7.55;5.22;;;;;;;26.44;47.99;95137.47;4998862;28;20089;-69
2022/08/04 05:46:50;;;;;;;12.32;4.85;;;;;;;26.28;47.63;95113.13;4989893;28;20073;-63
2022/08/04 05:49:15;;;;;;;8.80;4.88;;;;;;;26.70;47.48;95153.19;4993275;28;20057;-68
2022/08/04 05:51:42;;;;;;;7.63;4.95;;;;;;;26.69;47.91;95138.00;5004763;28;20062;-67
2022/08/04 05:54:07;;;;;;;6.50;4.85;;;;;;;26.84;47.52;95153.34;5027224;28;20030;-74
2022/08/04 05:56:33;;;;;;;7.72;5.25;;;;;;;26.84;47.91;95147.13;5022301;28;20036;-63
2022/08/04 05:58:59;;;;;;;6.82;5.00;;;;;;;26.74;47.53;95126.19;5028993;28;20041;-72
2022/08/04 06:01:25;;;;;;;7.50;5.05;;;;;;;26.97;47.63;95150.63;5007870;28;20133;-72
2022/08/04 06:03:50;;;;;;;6.28;4.63;;;;;;;27.02;47.37;95130.59;5026720;28;20033;-62
2022/08/04 06:06:16;;;;;;;9.45;5.22;;;;;;;26.97;47.29;95134.19;5027888;28;20071;-67
2022/08/04 06:08:42;;;;;;;9.32;4.97;;;;;;;27.18;47.26;95147.97;5013424;28;20029;-70
2022/08/04 06:11:08;;;;;;;7.18;5.45;;;;;;;27.02;46.52;95124.38;5017489;28;20515;-65
2022/08/04 06:13:42;;;;;;;9.35;5.25;;;;;;;27.27;46.52;95145.50;5005443;28;20512;-64
2022/08/04 06:16:08;;;;;;;10.20;5.28;;;;;;;27.33;46.50;95159.84;4982535;28;20046;-68
2022/08/04 06:18:34;;;;;;;8.98;4.97;;;;;;;27.42;46.76;95162.88;4981393;28;20468;-66
2022/08/04 06:20:59;;;;;;;10.50;5.28;;;;;;;27.36;45.88;95150.53;5019921;28;20076;-66
2022/08/04 06:23:26;;;;;;;10.95;6.35;;;;;;;27.44;46.17;95154.09;4987735;28;20046;-62
2022/08/04 06:25:53;;;;;;;9.00;5.35;;;;;;;27.53;45.68;95162.63;5011222;28;20034;-65
2022/08/04 06:28:19;;;;;;;10.20;5.60;;;;;;;27.62;45.46;95161.44;5018525;28;20491;-65
2022/08/04 06:30:49;;;;;;;6.93;5.10;;;;;;;27.66;45.55;95161.88;5002345;28;20026;-63
2022/08/04 06:33:26;;;;;;;10.68;5.43;;;;;;;27.46;45.38;95113.91;4994934;28;20077;-62
2022/08/04 06:35:54;;;;;;;10.07;5.95;;;;;;;27.79;45.55;95163.28;4994424;28;20496;-64
2022/08/04 06:38:21;;;;;;;11.40;5.20;;;;;;;27.82;44.95;95162.22;4995137;28;20038;-64
2022/08/04 06:40:47;;;;;;;10.05;5.57;;;;;;;27.90;45.23;95167.78;5000528;28;20038;-64
2022/08/04 06:43:12;;;;;;;11.07;5.70;;;;;;;27.93;45.06;95159.19;4998634;28;20040;-69
2022/08/04 06:45:38;;;;;;;8.07;5.88;;;;;;;27.62;44.43;95132.00;5000871;28;20029;-68
2022/08/04 06:48:04;;;;;;;9.13;5.55;;;;;;;27.87;44.57;95169.56;4998724;28;20045;-69
2022/08/04 06:50:31;;;;;;;13.23;6.03;;;;;;;27.83;44.47;95166.44;4994515;28;20038;-67
2022/08/04 06:52:56;;;;;;;11.23;5.13;;;;;;;27.66;45.28;95153.63;4993935;28;20042;-66
2022/08/04 06:55:23;;;;;;;8.88;5.55;;;;;;;27.60;44.96;95155.78;4988726;28;20046;-70
2022/08/04 06:57:49;;;;;;;10.27;5.82;;;;;;;27.50;44.98;95157.50;4986111;28;20040;-61
2022/08/04 07:00:15;;;;;;;10.10;5.60;;;;;;;27.57;45.51;95173.31;4999567;28;20050;-61
2022/08/04 07:02:45;;;;;;;10.25;5.85;;;;;;;27.39;45.67;95157.72;4984672;28;20129;-70
2022/08/04 07:05:10;;;;;;;8.65;5.80;;;;;;;27.28;45.63;95157.97;5002073;28;20060;-68
2022/08/04 07:07:36;;;;;;;10.90;5.55;;;;;;;27.06;46.11;95141.25;5002625;28;20038;-63
2022/08/04 07:10:02;;;;;;;8.07;5.70;;;;;;;27.11;46.40;95165.78;5013694;28;20077;-72
2022/08/04 07:12:28;;;;;;;8.07;5.97;;;;;;;27.04;46.26;95169.19;5000009;28;20416;-73
2022/08/04 07:14:53;;;;;;;10.70;6.03;;;;;;;26.98;46.25;95168.56;5007631;28;20081;-66
2022/08/04 07:17:19;;;;;;;8.68;5.95;;;;;;;26.79;46.84;95140.50;5003401;28;20483;-71
2022/08/04 07:19:45;;;;;;;11.13;5.68;;;;;;;26.66;47.02;95136.31;4986985;28;20037;-66
2022/08/04 07:22:10;;;;;;;10.23;5.55;;;;;;;26.85;46.59;95165.78;5022765;28;20021;-62
2022/08/04 07:24:36;;;;;;;9.00;5.63;;;;;;;26.70;46.48;95153.19;4988684;28;20638;-63
2022/08/04 07:27:02;;;;;;;11.75;5.55;;;;;;;26.72;47.21;95161.59;5021493;28;20026;-69
2022/08/04 07:29:28;;;;;;;8.27;5.32;;;;;;;26.65;47.25;95151.25;5017050;28;20046;-71
2022/08/04 07:31:54;;;;;;;9.95;5.65;;;;;;;26.50;47.07;95134.63;5019129;28;20045;-72
2022/08/04 07:34:20;;;;;;;8.80;5.38;;;;;;;26.56;46.81;95143.47;4998574;28;20428;-70
2022/08/04 07:36:46;;;;;;;8.55;6.00;;;;;;;26.35;47.77;95109.75;5010285;28;20037;-70
2022/08/04 07:39:12;;;;;;;8.13;5.60;;;;;;;26.55;47.57;95142.75;5015516;28;20050;-70
2022/08/04 07:41:37;;;;;;;9.27;5.55;;;;;;;26.26;47.18;95107.41;4986576;28;20049;-68
2022/08/04 07:44:03;;;;;;;9.65;5.40;;;;;;;26.50;47.85;95140.09;5015215;28;20037;-67
2022/08/04 07:46:28;;;;;;;9.45;4.93;;;;;;;26.52;47.52;95143.06;5001096;28;20053;-69
2022/08/04 07:48:54;;;;;;;10.23;5.53;;;;;;;26.45;47.67;95149.16;5008715;28;20033;-71
2022/08/04 07:51:19;;;;;;;11.05;5.28;;;;;;;26.54;47.47;95146.00;5001024;28;20045;-70
2022/08/04 07:53:45;;;;;;;7.03;5.18;;;;;;;26.57;47.94;95144.94;5004788;28;20068;-69
2022/08/04 07:56:10;;;;;;;6.65;5.30;;;;;;;26.29;48.15;95109.88;4991131;28;20570;-71
2022/08/04 07:58:36;;;;;;;10.07;5.85;;;;;;;26.54;47.77;95146.00;5002989;28;20791;-72
2022/08/04 08:01:01;;;;;;;10.48;5.25;;;;;;;26.41;47.76;95118.59;4996511;28;20465;-71
2022/08/04 08:03:27;;;;;;;8.70;5.32;;;;;;;26.58;47.83;95146.44;5002195;28;20037;-63
2022/08/04 08:05:52;;;;;;;9.80;5.63;;;;;;;26.55;47.70;95131.78;5014031;28;20076;-71
2022/08/04 08:08:20;;;;;;;8.48;5.28;;;;;;;26.51;47.48;95125.16;4988877;28;20109;-69
2022/08/04 08:10:47;;;;;;;7.57;5.03;;;;;;;26.42;47.83;95117.34;5007799;28;20111;-69
2022/08/04 08:13:12;;;;;;;7.85;5.07;;;;;;;26.53;47.50;95133.56;5004412;28;20651;-71
2022/08/04 08:15:40;;;;;;;9.15;5.43;;;;;;;26.56;47.52;95132.50;5004743;28;20034;-72
2022/08/04 08:18:05;;;;;;;10.15;5.45;;;;;;;26.68;47.64;95144.72;5005868;28;20040;-71
2022/08/04 08:20:31;;;;;;;7.22;5.22;;;;;;;26.60;47.64;95132.94;5005933;28;20038;-71
2022/08/04 08:22:57;;;;;;;10.25;5.03;;;;;;;26.71;47.51;95133.47;5005985;28;20484;-72
2022/08/04 08:25:23;;;;;;;10.02;4.93;;;;;;;26.66;47.99;95144.53;5002048;28;20042;-68
2022/08/04 08:27:48;;;;;;;7.00;4.20;;;;;;;26.73;48.44;95141.16;5001237;28;20025;-71
2022/08/04 08:30:14;;;;;;;8.23;4.20;;;;;;;26.69;47.89;95140.72;5020244;28;20486;-69
2022/08/04 08:32:39;;;;;;;6.38;4.00;;;;;;;26.67;47.84;95132.31;5002765;28;20076;-63
2022/08/04 08:35:05;;;;;;;10.80;4.70;;;;;;;26.56;48.16;95116.06;5019049;28;20048;-64
2022/08/04 08:37:41;;;;;;;5.80;3.42;;;;;;;26.77;47.50;95145.78;5000224;28;20393;-68
2022/08/04 08:40:20;;;;;;;7.82;4.05;;;;;;;26.79;47.91;95145.97;4998690;28;20034;-62
2022/08/04 08:43:07;;;;;;;5.25;3.60;;;;;;;26.67;47.43;95126.84;5008295;28;20034;-64
2022/08/04 08:45:51;;;;;;;5.05;3.65;;;;;;;26.81;47.66;95143.44;4966360;28;20126;-69
2022/08/04 08:48:39;;;;;;;4.75;3.55;;;;;;;26.82;47.77;95139.44;5008488;28;20112;-63
2022/08/04 08:51:16;;;;;;;6.60;3.67;;;;;;;26.84;47.56;95134.16;5007286;28;20037;-66
2022/08/04 08:54:08;;;;;;;5.47;3.33;;;;;;;26.86;47.49;95139.88;4990060;28;20104;-70
2022/08/04 08:56:51;;;;;;;5.88;3.83;;;;;;;26.88;47.10;95137.34;5007934;28;20149;-63
2022/08/04 08:59:33;;;;;;;5.40;3.30;;;;;;;26.86;46.90;95142.63;5010687;28;20459;-66
2022/08/04 09:02:02;;;;;;;9.20;3.80;;;;;;;26.79;47.47;95135.03;4974320;28;20053;-65
2022/08/04 09:04:49;;;;;;;4.90;3.42;;;;;;;26.90;47.47;95143.03;5005821;28;20053;-62
2022/08/04 09:07:25;;;;;;;6.78;3.20;;;;;;;26.97;47.31;95134.19;5015102;28;20036;-63
2022/08/04 09:10:18;;;;;;;7.43;3.58;;;;;;;27.01;46.99;95129.13;5001194;28;20042;-64
2022/08/04 09:12:56;;;;;;;6.43;3.60;;;;;;;26.85;46.83;95121.94;5001631;28;20157;-62
2022/08/04 09:15:46;;;;;;;6.93;3.55;;;;;;;26.83;47.11;95102.56;4985870;28;20064;-66
2022/08/04 09:18:19;;;;;;;5.18;3.22;;;;;;;27.12;46.67;95133.63;4988058;28;20052;-69
2022/08/04 09:20:57;;;;;;;4.13;2.97;;;;;;;27.19;47.15;95128.25;5009482;28;20047;-70
2022/08/04 09:23:55;;;;;;;4.90;3.15;;;;;;;27.33;46.58;95121.44;5023319;28;20739;-62
2022/08/04 09:26:28;;;;;;;6.00;3.78;;;;;;;27.44;46.29;95121.19;5011317;28;20520;-74
2022/08/04 09:29:26;;;;;;;6.97;4.07;;;;;;;27.62;45.52;95120.28;5011772;28;20111;-64
2022/08/04 09:32:02;;;;;;;6.55;3.45;;;;;;;27.51;45.59;95082.16;5013142;28;20563;-68
2022/08/04 09:34:46;;;;;;;5.53;3.20;;;;;;;27.90;45.08;95113.59;4993257;28;21330;-69
2022/08/04 09:37:20;;;;;;;5.93;3.40;;;;;;;28.06;45.14;95114.47;5025411;28;20033;-64
2022/08/04 09:40:16;;;;;;;5.13;3.38;;;;;;;28.03;44.63;95083.31;5026117;28;20033;-64
2022/08/04 09:43:15;;;;;;;5.30;3.38;;;;;;;28.40;44.92;95110.31;4952334;28;20045;-62
2022/08/04 09:45:49;;;;;;;4.53;3.20;;;;;;;28.53;44.45;95119.19;5021657;28;20054;-63
2022/08/04 09:48:43;;;;;;;5.32;3.42;;;;;;;28.70;44.12;95124.28;5007223;28;20037;-67
2022/08/04 09:51:31;;;;;;;5.93;3.30;;;;;;;28.86;43.29;95124.56;5005211;28;20540;-68
2022/08/04 09:54:34;;;;;;;4.53;3.15;;;;;;;28.99;42.92;95116.19;5006655;28;20049;-71
2022/08/04 09:57:21;;;;;;;5.60;3.40;;;;;;;29.15;42.93;95117.72;5007096;28;20548;-66
2022/08/04 10:00:07;;;;;;;5.10;3.25;;;;;;;29.25;41.89;95113.16;5018890;28;20045;-66
2022/08/04 10:02:36;;;;;;;6.28;3.03;;;;;;;29.32;42.10;95109.72;5012974;28;20049;-71
2022/08/04 10:05:02;;;;;;;5.07;3.00;;;;;;;29.37;41.69;95111.56;5013832;28;20832;-65
2022/08/04 10:07:43;;;;;;;4.22;2.80;;;;;;;29.63;41.18;95108.50;5015885;28;20037;-74
2022/08/04 10:10:25;;;;;;;5.43;3.05;;;;;;;29.43;40.78;95059.84;5005005;28;20701;-69
2022/08/04 10:12:54;;;;;;;4.03;2.97;;;;;;;29.80;40.86;95104.69;5020346;28;20097;-66
2022/08/04 10:15:40;;;;;;;3.92;2.75;;;;;;;29.86;40.13;95102.47;5005308;28;20092;-64
2022/08/04 10:18:43;;;;;;;5.18;3.05;;;;;;;29.85;40.26;95081.00;4987824;28;20066;-65
2022/08/04 10:21:30;;;;;;;3.50;2.55;;;;;;;30.05;39.38;95086.34;5004985;28;20042;-65
2022/08/04 10:24:24;;;;;;;5.00;3.10;;;;;;;30.15;39.32;95084.50;5020372;28;20038;-70
2022/08/04 10:27:00;;;;;;;5.53;2.60;;;;;;;30.17;38.65;95081.91;4998440;28;20177;-71
2022/08/04 10:29:41;;;;;;;5.75;3.13;;;;;;;30.26;38.74;95092.38;5006814;28;20030;-70
2022/08/04 10:32:26;;;;;;;3.63;2.78;;;;;;;30.25;39.04;95085.41;4994639;28;20034;-67
2022/08/04 10:35:04;;;;;;;5.55;3.10;;;;;;;30.21;37.72;95085.06;5003480;28;20040;-69
2022/08/04 10:37:49;;;;;;;7.90;3.90;;;;;;;30.04;38.23;95068.34;5005600;28;20061;-70
2022/08/04 10:40:36;;;;;;;5.43;2.80;;;;;;;30.11;38.20;95080.66;5020298;28;20022;-70
2022/08/04 10:43:11;;;;;;;3.53;2.67;;;;;;;30.03;38.42;95077.91;4997776;28;20049;-68
2022/08/04 10:45:48;;;;;;;5.18;2.60;;;;;;;29.94;37.68;95075.69;5000806;28;20088;-70
2022/08/04 10:48:27;;;;;;;5.00;2.25;;;;;;;29.79;38.10;95059.19;5014616;28;20066;-69
2022/08/04 10:51:13;;;;;;;4.05;2.40;;;;;;;29.79;38.25;95075.69;4990940;28;20573;-70
2022/08/04 10:53:38;;;;;;;3.55;2.13;;;;;;;29.71;38.79;95074.91;5002953;28;20030;-69
2022/08/04 10:56:20;;;;;;;4.85;2.28;;;;;;;29.51;38.54;95049.59;5000621;28;20037;-70
2022/08/04 10:58:49;;;;;;;4.10;2.55;;;;;;;29.58;38.01;95076.38;4979243;28;20045;-70
2022/08/04 11:01:33;;;;;;;4.17;2.27;;;;;;;29.53;38.17;95074.53;4975257;28;20100;-68
2022/08/04 11:04:05;;;;;;;3.88;2.28;;;;;;;29.40;38.87;95064.44;5013394;28;20037;-66
2022/08/04 11:06:31;;;;;;;4.95;2.67;;;;;;;29.37;38.30;95073.03;4984282;28;20049;-70
2022/08/04 11:08:56;;;;;;;3.33;2.40;;;;;;;29.32;38.70;95066.41;5003464;28;20062;-69
2022/08/04 11:11:43;;;;;;;4.45;2.50;;;;;;;29.28;38.76;95066.06;4994079;28;20050;-70
2022/08/04 11:14:15;;;;;;;3.38;1.98;;;;;;;29.08;38.49;95033.16;5009633;28;20041;-70
2022/08/04 11:16:55;;;;;;;3.45;2.40;;;;;;;28.92;39.06;95022.66;5017303;28;20548;-68
2022/08/04 11:19:35;;;;;;;4.20;2.13;;;;;;;29.10;39.14;95055.31;4991387;28;20037;-70
2022/08/04 11:22:19;;;;;;;2.85;2.20;;;;;;;29.06;39.25;95062.47;5022787;28;20032;-68
2022/08/04 11:24:51;;;;;;;3.95;2.38;;;;;;;29.00;38.44;95051.66;5022379;28;20040;-69
2022/08/04 11:27:31;;;;;;;3.20;1.92;;;;;;;28.98;38.88;95051.44;5021473;28;20048;-70
2022/08/04 11:30:02;;;;;;;3.03;2.15;;;;;;;28.94;38.88;95048.34;5024033;28;20076;-71
2022/08/04 11:32:46;;;;;;;3.08;2.30;;;;;;;28.91;39.20;95048.69;5022219;28;20128;-70
2022/08/04 11:35:43;;;;;;;2.47;2.00;;;;;;;28.88;38.91;95049.78;5007128;28;20041;-66
2022/08/04 11:38:47;;;;;;;2.67;2.10;;;;;;;28.70;38.64;95033.56;5003721;28;20040;-65
2022/08/04 11:41:18;;;;;;;3.42;1.80;;;;;;;28.77;39.08;95045.34;5009886;28;20083;-65
2022/08/04 11:43:50;;;;;;;4.55;2.30;;;;;;;28.75;39.32;95042.38;5000033;28;20518;-65
2022/08/04 11:46:28;;;;;;;3.63;2.20;;;;;;;28.72;39.42;95042.03;4999402;28;20069;-70
2022/08/04 11:49:10;;;;;;;3.15;2.20;;;;;;;28.71;38.86;95046.03;4985802;28;20023;-65
2022/08/04 11:51:36;;;;;;;2.72;2.17;;;;;;;28.64;39.63;95036.47;4986086;28;20045;-65
2022/08/04 11:54:01;;;;;;;4.32;2.30;;;;;;;28.64;39.51;95024.72;4997245;28;20064;-65
2022/08/04 11:56:27;;;;;;;4.38;2.20;;;;;;;28.68;39.66;95036.13;4993569;28;20507;-64
2022/08/04 11:58:53;;;;;;;6.63;2.35;;;;;;;28.59;39.32;95025.63;5004869;28;20034;-66
2022/08/04 12:01:37;;;;;;;3.00;2.10;;;;;;;28.62;39.24;95027.28;5001361;28;20025;-65
2022/08/04 12:04:13;;;;;;;3.20;2.40;;;;;;;28.53;39.37;95025.78;4980902;28;20103;-65
2022/08/04 12:06:48;;;;;;;4.57;2.47;;;;;;;28.59;38.68;95028.38;5002415;28;20025;-66
2022/08/04 12:09:28;;;;;;;3.78;2.25;;;;;;;28.59;39.17;95031.13;4979287;28;20029;-67
2022/08/04 12:12:09;;;;;;;3.72;2.35;;;;;;;28.59;39.22;95039.38;4988944;28;20885;-66